Estación de Codegua

Ultimos registro cada 15 minutos 81
Estación Fecha / Hora Temperatura Humedad Lluvia Velocidad Dirección Radiación Presion
81 Codegua 03-05-2026 20:00 15 62 0 0 170 0,6 958,9
80 Codegua 03-05-2026 19:45 15,5 55,1 0 0 170 0,6 958,6
79 Codegua 03-05-2026 19:30 15,8 53,3 0 0 170 0,6 958,5
78 Codegua 03-05-2026 19:15 16,3 49,7 0 0 170 0,6 958,4
77 Codegua 03-05-2026 19:00 16,5 46,8 0 0 170 0,6 958,4
76 Codegua 03-05-2026 18:45 17,5 44,6 0 0 181 0,6 958,4
75 Codegua 03-05-2026 18:30 18,1 41,9 0 0 234 0,6 958,4
74 Codegua 03-05-2026 18:15 18,8 43 0 0 234 0,6 958,3
73 Codegua 03-05-2026 18:00 19,8 40,3 0 0 234 6,9 958,1
72 Codegua 03-05-2026 17:45 21 36,5 0 0 234 28,1 957,8
71 Codegua 03-05-2026 17:30 22 31,4 0 0 220 46,9 957,6
70 Codegua 03-05-2026 17:15 22,4 30,8 0 0 184 89,4 957,7
69 Codegua 03-05-2026 17:00 23 32,6 0 0 173 103,1 957,4
68 Codegua 03-05-2026 16:45 23 30,1 0 0 194 139,4 957,5
67 Codegua 03-05-2026 16:30 22,3 30,5 0 0 212 98,1 957,6
66 Codegua 03-05-2026 16:15 22,6 31 0 0 222 138,1 957,6
65 Codegua 03-05-2026 16:00 23 32,2 0 0 232 155,6 957,5
64 Codegua 03-05-2026 15:45 23,2 28,8 0 0 223 144,4 957,4
63 Codegua 03-05-2026 15:30 23,8 29,9 0 0 225 133,1 957,3
62 Codegua 03-05-2026 15:15 25 28,1 0 0 225 171,9 957,1
61 Codegua 03-05-2026 15:00 24,9 29,9 0 0 222 201,9 957,1
60 Codegua 03-05-2026 14:45 27,3 29,8 0 0 202 490,6 957
59 Codegua 03-05-2026 14:30 27 30 0 0 257 276,9 957
58 Codegua 03-05-2026 14:15 26,3 32,2 0 0 246 490,6 957,2
57 Codegua 03-05-2026 14:00 26,8 30,4 0 0 233 635,6 957
56 Codegua 03-05-2026 13:45 26,5 32,4 0 0 223 621,9 957,2
55 Codegua 03-05-2026 13:30 26,2 33,2 0 0 226 615,6 957,6
54 Codegua 03-05-2026 13:15 26,3 33,7 0 0 257 149,4 957,4
53 Codegua 03-05-2026 13:00 25 34,5 0 0 263 623,1 957,4
52 Codegua 03-05-2026 12:45 24,3 35,2 0 0 261 403,1 957,7
51 Codegua 03-05-2026 12:30 23,8 38,7 0 0 256 451,9 957,9
50 Codegua 03-05-2026 12:15 23,8 40 0 0 240 660,6 958,2
49 Codegua 03-05-2026 12:00 22,7 43,3 0 0 229 699,4 958,4
48 Codegua 03-05-2026 11:45 22,6 41,4 0 0 263 269,4 958,5
47 Codegua 03-05-2026 11:30 21,4 46,9 0 0 271 394,4 958,7
46 Codegua 03-05-2026 11:15 21,1 46,6 0 0 317 533,1 958,5
45 Codegua 03-05-2026 11:00 20,5 46 0 0 6 506,9 958,5
44 Codegua 03-05-2026 10:45 19,7 48,2 0 0 65 483,1 958,4
43 Codegua 03-05-2026 10:30 18,5 52 0 0 65 453,1 958,8
42 Codegua 03-05-2026 10:15 17,2 55,4 0 0 31 136,9 958,9
41 Codegua 03-05-2026 10:00 16,2 58,6 0 0 355 389,4 958,9
40 Codegua 03-05-2026 09:45 16 60,6 0 0 358 355,6 958,6
39 Codegua 03-05-2026 09:30 14,5 67,4 0 0 49 323,1 958,6
38 Codegua 03-05-2026 09:15 13,5 70 0 0 80 283,1 958,6
37 Codegua 03-05-2026 09:00 12 76,6 0 0 128 243,1 958,6
36 Codegua 03-05-2026 08:45 9,8 89,5 0 0 129 30,6 958,8
35 Codegua 03-05-2026 08:30 7,9 97,3 0 0 129 26,9 958,5
34 Codegua 03-05-2026 08:15 6,1 98,6 0 0 129 23,1 958,3
33 Codegua 03-05-2026 08:00 4,1 98,1 0 0 129 19,4 958,4
32 Codegua 03-05-2026 07:45 3,4 97,3 0 0 129 6,9 958,5
31 Codegua 03-05-2026 07:30 3,5 96,9 0 0 129 3,1 958,1
30 Codegua 03-05-2026 07:15 4,1 97,1 0 0 129 0,6 957,9
29 Codegua 03-05-2026 07:00 3,6 96,8 0 0 129 0,6 957,9
28 Codegua 03-05-2026 06:45 4 96,6 0 0 129 0,6 957,9
27 Codegua 03-05-2026 06:30 4,2 96,7 0 0 129 0,6 957,9
26 Codegua 03-05-2026 06:15 4,8 96,2 0 0 129 0,6 958
25 Codegua 03-05-2026 06:00 4,9 95,9 0 0 129 0,6 958,2
24 Codegua 03-05-2026 05:45 4,9 95,2 0 0 129 0,6 958
23 Codegua 03-05-2026 05:30 6 95,6 0 0 129 0,6 957,8
22 Codegua 03-05-2026 05:15 5,5 95,7 0 0 129 0,6 957,4
21 Codegua 03-05-2026 05:00 5,3 95,2 0 0 129 0,6 957,4
20 Codegua 03-05-2026 04:45 6 95,2 0 0 129 0,6 957,5
19 Codegua 03-05-2026 04:30 5,2 95,1 0 0 129 0,6 957,5
18 Codegua 03-05-2026 04:15 5,9 95,1 0 0 129 0,6 957,4
17 Codegua 03-05-2026 04:00 5,9 95 0 0 129 0,6 957,8
16 Codegua 03-05-2026 03:45 6,3 94,8 0 0 133 0,6 958,2
15 Codegua 03-05-2026 03:30 6,3 94,8 0 0 133 0,6 958,4
14 Codegua 03-05-2026 03:15 6,2 95,5 0 0 133 0,6 958,3
13 Codegua 03-05-2026 03:00 6 95,3 0 0 138 0,6 958,4
12 Codegua 03-05-2026 02:45 6 95,7 0 0 205 0,6 958,6
11 Codegua 03-05-2026 02:30 6,2 95,3 0 0 208 0,6 958,3
10 Codegua 03-05-2026 02:15 5,8 95,3 0 0 208 0,6 957,9
9 Codegua 03-05-2026 02:00 6,4 95,3 0 0 209 0,6 957,9
8 Codegua 03-05-2026 01:45 5,9 94,9 0 0 211 0,6 957,7
7 Codegua 03-05-2026 01:30 5,9 94,7 0 0 211 0,6 957,8
6 Codegua 03-05-2026 01:15 6,2 94 0 0 211 0,6 957,8
5 Codegua 03-05-2026 01:00 6,6 93,9 0 0 211 0,6 957,9
4 Codegua 03-05-2026 00:45 6,5 93,4 0 0 211 0,6 958,3
3 Codegua 03-05-2026 00:30 6,7 92,5 0 0 211 0,6 958,6
2 Codegua 03-05-2026 00:15 6,7 93,1 0 0 211 0,6 958,8
1 Codegua 03-05-2026 00:00 6,2 91,7 0 0 211 0,6 958,9